sensor_id;sensor_type;location;lat;lon;timestamp;P1;durP1;ratioP1;P2;durP2;ratioP2
37087;SDS011;23002;52.676;6.432;2023-03-19T00:01:31;16.90;;;9.40;;
37087;SDS011;23002;52.676;6.432;2023-03-19T00:03:58;21.15;;;10.20;;
37087;SDS011;23002;52.676;6.432;2023-03-19T00:06:25;19.67;;;9.75;;
37087;SDS011;23002;52.676;6.432;2023-03-19T00:08:52;22.17;;;10.02;;
37087;SDS011;23002;52.676;6.432;2023-03-19T00:11:19;18.73;;;10.52;;
37087;SDS011;23002;52.676;6.432;2023-03-19T00:13:47;18.38;;;10.40;;
37087;SDS011;23002;52.676;6.432;2023-03-19T00:16:14;19.65;;;10.93;;
37087;SDS011;23002;52.676;6.432;2023-03-19T00:18:41;20.02;;;10.15;;
37087;SDS011;23002;52.676;6.432;2023-03-19T00:21:08;16.20;;;9.82;;
37087;SDS011;23002;52.676;6.432;2023-03-19T00:23:35;17.27;;;9.38;;
37087;SDS011;23002;52.676;6.432;2023-03-19T00:26:02;20.17;;;9.93;;
37087;SDS011;23002;52.676;6.432;2023-03-19T00:28:30;15.68;;;9.05;;
37087;SDS011;23002;52.676;6.432;2023-03-19T00:30:57;19.85;;;8.45;;
37087;SDS011;23002;52.676;6.432;2023-03-19T00:33:24;16.20;;;7.97;;
37087;SDS011;23002;52.676;6.432;2023-03-19T00:35:51;15.60;;;8.43;;
37087;SDS011;23002;52.676;6.432;2023-03-19T00:38:18;16.33;;;8.20;;
37087;SDS011;23002;52.676;6.432;2023-03-19T00:40:45;16.13;;;7.43;;
37087;SDS011;23002;52.676;6.432;2023-03-19T00:43:13;11.73;;;6.45;;
37087;SDS011;23002;52.676;6.432;2023-03-19T00:45:41;11.07;;;6.10;;
37087;SDS011;23002;52.676;6.432;2023-03-19T00:48:08;11.40;;;5.80;;
37087;SDS011;23002;52.676;6.432;2023-03-19T00:50:35;10.98;;;5.25;;
37087;SDS011;23002;52.676;6.432;2023-03-19T00:53:03;9.13;;;4.93;;
37087;SDS011;23002;52.676;6.432;2023-03-19T00:55:30;10.65;;;5.03;;
37087;SDS011;23002;52.676;6.432;2023-03-19T00:57:57;10.10;;;3.85;;
37087;SDS011;23002;52.676;6.432;2023-03-19T01:00:24;7.03;;;3.63;;
37087;SDS011;23002;52.676;6.432;2023-03-19T01:02:51;7.55;;;3.70;;
37087;SDS011;23002;52.676;6.432;2023-03-19T01:05:19;8.63;;;4.03;;
37087;SDS011;23002;52.676;6.432;2023-03-19T01:07:46;6.75;;;3.38;;
37087;SDS011;23002;52.676;6.432;2023-03-19T01:10:13;5.43;;;3.10;;
37087;SDS011;23002;52.676;6.432;2023-03-19T01:12:41;7.10;;;3.72;;
37087;SDS011;23002;52.676;6.432;2023-03-19T01:15:08;6.70;;;3.40;;
37087;SDS011;23002;52.676;6.432;2023-03-19T01:17:36;6.40;;;3.28;;
37087;SDS011;23002;52.676;6.432;2023-03-19T01:20:04;4.57;;;2.90;;
37087;SDS011;23002;52.676;6.432;2023-03-19T01:22:34;5.60;;;2.78;;
37087;SDS011;23002;52.676;6.432;2023-03-19T01:25:02;6.45;;;2.97;;
37087;SDS011;23002;52.676;6.432;2023-03-19T01:27:30;6.30;;;2.75;;
37087;SDS011;23002;52.676;6.432;2023-03-19T01:29:57;5.18;;;3.17;;
37087;SDS011;23002;52.676;6.432;2023-03-19T01:32:24;6.93;;;3.03;;
37087;SDS011;23002;52.676;6.432;2023-03-19T01:34:51;4.50;;;2.72;;
37087;SDS011;23002;52.676;6.432;2023-03-19T01:37:18;5.13;;;2.85;;
37087;SDS011;23002;52.676;6.432;2023-03-19T01:39:46;4.38;;;2.30;;
37087;SDS011;23002;52.676;6.432;2023-03-19T01:42:15;4.53;;;2.33;;
37087;SDS011;23002;52.676;6.432;2023-03-19T01:44:42;5.15;;;2.08;;
37087;SDS011;23002;52.676;6.432;2023-03-19T01:47:14;4.88;;;2.05;;
37087;SDS011;23002;52.676;6.432;2023-03-19T01:49:43;3.90;;;2.00;;
37087;SDS011;23002;52.676;6.432;2023-03-19T01:52:14;3.97;;;2.40;;
37087;SDS011;23002;52.676;6.432;2023-03-19T01:54:41;5.30;;;2.42;;
37087;SDS011;23002;52.676;6.432;2023-03-19T01:57:10;4.05;;;2.28;;
37087;SDS011;23002;52.676;6.432;2023-03-19T01:59:38;3.38;;;1.90;;
37087;SDS011;23002;52.676;6.432;2023-03-19T02:02:09;5.43;;;2.08;;
37087;SDS011;23002;52.676;6.432;2023-03-19T02:04:38;5.57;;;1.95;;
37087;SDS011;23002;52.676;6.432;2023-03-19T02:07:06;3.35;;;2.00;;
37087;SDS011;23002;52.676;6.432;2023-03-19T02:09:34;3.33;;;1.98;;
37087;SDS011;23002;52.676;6.432;2023-03-19T02:12:02;4.55;;;2.33;;
37087;SDS011;23002;52.676;6.432;2023-03-19T02:14:29;5.53;;;2.47;;
37087;SDS011;23002;52.676;6.432;2023-03-19T02:16:56;4.10;;;2.50;;
37087;SDS011;23002;52.676;6.432;2023-03-19T02:19:28;4.72;;;2.85;;
37087;SDS011;23002;52.676;6.432;2023-03-19T02:21:57;3.80;;;2.00;;
37087;SDS011;23002;52.676;6.432;2023-03-19T02:24:26;2.65;;;1.73;;
37087;SDS011;23002;52.676;6.432;2023-03-19T02:26:54;5.53;;;2.22;;
37087;SDS011;23002;52.676;6.432;2023-03-19T02:29:23;5.28;;;2.10;;
37087;SDS011;23002;52.676;6.432;2023-03-19T02:31:50;4.30;;;2.25;;
37087;SDS011;23002;52.676;6.432;2023-03-19T02:36:48;7.18;;;2.20;;
37087;SDS011;23002;52.676;6.432;2023-03-19T02:39:20;3.83;;;1.80;;
37087;SDS011;23002;52.676;6.432;2023-03-19T02:41:48;4.60;;;2.42;;
37087;SDS011;23002;52.676;6.432;2023-03-19T02:44:17;3.45;;;2.17;;
37087;SDS011;23002;52.676;6.432;2023-03-19T02:46:45;3.78;;;2.22;;
37087;SDS011;23002;52.676;6.432;2023-03-19T02:49:12;4.03;;;2.30;;
37087;SDS011;23002;52.676;6.432;2023-03-19T02:51:40;5.15;;;2.20;;
37087;SDS011;23002;52.676;6.432;2023-03-19T02:54:07;4.97;;;2.38;;
37087;SDS011;23002;52.676;6.432;2023-03-19T02:56:34;4.32;;;2.42;;
37087;SDS011;23002;52.676;6.432;2023-03-19T02:59:01;4.20;;;2.33;;
37087;SDS011;23002;52.676;6.432;2023-03-19T03:01:28;5.50;;;2.55;;
37087;SDS011;23002;52.676;6.432;2023-03-19T03:03:55;4.72;;;2.40;;
37087;SDS011;23002;52.676;6.432;2023-03-19T03:06:22;6.22;;;2.55;;
37087;SDS011;23002;52.676;6.432;2023-03-19T03:08:49;4.32;;;2.03;;
37087;SDS011;23002;52.676;6.432;2023-03-19T03:11:17;4.88;;;2.30;;
37087;SDS011;23002;52.676;6.432;2023-03-19T03:13:44;3.58;;;1.88;;
37087;SDS011;23002;52.676;6.432;2023-03-19T03:16:11;3.80;;;1.63;;
37087;SDS011;23002;52.676;6.432;2023-03-19T03:18:38;4.60;;;2.20;;
37087;SDS011;23002;52.676;6.432;2023-03-19T03:21:05;6.03;;;2.28;;
37087;SDS011;23002;52.676;6.432;2023-03-19T03:23:33;3.22;;;2.08;;
37087;SDS011;23002;52.676;6.432;2023-03-19T03:26:00;3.30;;;2.05;;
37087;SDS011;23002;52.676;6.432;2023-03-19T03:28:27;3.38;;;2.00;;
37087;SDS011;23002;52.676;6.432;2023-03-19T03:30:58;3.38;;;1.73;;
37087;SDS011;23002;52.676;6.432;2023-03-19T03:33:25;4.40;;;2.28;;
37087;SDS011;23002;52.676;6.432;2023-03-19T03:35:52;4.07;;;2.45;;
37087;SDS011;23002;52.676;6.432;2023-03-19T03:38:19;4.68;;;2.42;;
37087;SDS011;23002;52.676;6.432;2023-03-19T03:40:50;4.88;;;2.30;;
37087;SDS011;23002;52.676;6.432;2023-03-19T03:43:18;7.20;;;2.40;;
37087;SDS011;23002;52.676;6.432;2023-03-19T03:45:46;4.28;;;2.25;;
37087;SDS011;23002;52.676;6.432;2023-03-19T03:48:14;3.33;;;2.05;;
37087;SDS011;23002;52.676;6.432;2023-03-19T03:50:41;5.78;;;2.35;;
37087;SDS011;23002;52.676;6.432;2023-03-19T03:53:08;4.25;;;2.28;;
37087;SDS011;23002;52.676;6.432;2023-03-19T03:55:37;4.63;;;2.53;;
37087;SDS011;23002;52.676;6.432;2023-03-19T03:58:04;4.50;;;2.38;;
37087;SDS011;23002;52.676;6.432;2023-03-19T04:00:31;3.72;;;2.10;;
37087;SDS011;23002;52.676;6.432;2023-03-19T04:02:59;6.28;;;2.35;;
37087;SDS011;23002;52.676;6.432;2023-03-19T04:05:26;5.07;;;2.60;;
37087;SDS011;23002;52.676;6.432;2023-03-19T04:07:53;4.47;;;2.58;;
37087;SDS011;23002;52.676;6.432;2023-03-19T04:10:21;6.10;;;2.97;;
37087;SDS011;23002;52.676;6.432;2023-03-19T04:12:49;4.07;;;2.40;;
37087;SDS011;23002;52.676;6.432;2023-03-19T04:15:16;6.00;;;2.70;;
37087;SDS011;23002;52.676;6.432;2023-03-19T04:17:45;3.42;;;2.22;;
37087;SDS011;23002;52.676;6.432;2023-03-19T04:20:12;5.53;;;2.60;;
37087;SDS011;23002;52.676;6.432;2023-03-19T04:22:41;4.38;;;2.53;;
37087;SDS011;23002;52.676;6.432;2023-03-19T04:25:08;4.45;;;2.50;;
37087;SDS011;23002;52.676;6.432;2023-03-19T04:27:35;3.58;;;2.03;;
37087;SDS011;23002;52.676;6.432;2023-03-19T04:30:02;4.15;;;2.30;;
37087;SDS011;23002;52.676;6.432;2023-03-19T04:32:30;4.97;;;2.65;;
37087;SDS011;23002;52.676;6.432;2023-03-19T04:34:58;3.70;;;2.05;;
37087;SDS011;23002;52.676;6.432;2023-03-19T04:37:25;3.90;;;2.08;;
37087;SDS011;23002;52.676;6.432;2023-03-19T04:39:52;4.32;;;2.38;;
37087;SDS011;23002;52.676;6.432;2023-03-19T04:42:20;4.50;;;2.08;;
37087;SDS011;23002;52.676;6.432;2023-03-19T04:44:47;5.28;;;2.17;;
37087;SDS011;23002;52.676;6.432;2023-03-19T04:47:14;3.72;;;2.50;;
37087;SDS011;23002;52.676;6.432;2023-03-19T04:49:41;3.75;;;2.22;;
37087;SDS011;23002;52.676;6.432;2023-03-19T04:52:08;4.88;;;2.55;;
37087;SDS011;23002;52.676;6.432;2023-03-19T04:54:35;8.02;;;2.22;;
37087;SDS011;23002;52.676;6.432;2023-03-19T04:57:03;3.88;;;2.05;;
37087;SDS011;23002;52.676;6.432;2023-03-19T04:59:30;3.45;;;2.42;;
37087;SDS011;23002;52.676;6.432;2023-03-19T05:01:57;6.38;;;2.70;;
37087;SDS011;23002;52.676;6.432;2023-03-19T05:04:24;5.40;;;2.90;;
37087;SDS011;23002;52.676;6.432;2023-03-19T05:06:52;5.30;;;2.97;;
37087;SDS011;23002;52.676;6.432;2023-03-19T05:09:19;6.15;;;2.65;;
37087;SDS011;23002;52.676;6.432;2023-03-19T05:11:46;5.05;;;2.72;;
37087;SDS011;23002;52.676;6.432;2023-03-19T05:14:13;5.38;;;2.83;;
37087;SDS011;23002;52.676;6.432;2023-03-19T05:16:40;6.53;;;3.10;;
37087;SDS011;23002;52.676;6.432;2023-03-19T05:19:07;4.80;;;2.83;;
37087;SDS011;23002;52.676;6.432;2023-03-19T05:21:36;5.45;;;2.97;;
37087;SDS011;23002;52.676;6.432;2023-03-19T05:24:03;6.25;;;3.00;;
37087;SDS011;23002;52.676;6.432;2023-03-19T05:26:30;6.85;;;3.28;;
37087;SDS011;23002;52.676;6.432;2023-03-19T05:28:57;5.90;;;3.30;;
37087;SDS011;23002;52.676;6.432;2023-03-19T05:31:24;8.07;;;3.10;;
37087;SDS011;23002;52.676;6.432;2023-03-19T05:33:51;5.00;;;3.10;;
37087;SDS011;23002;52.676;6.432;2023-03-19T05:36:18;7.65;;;3.85;;
37087;SDS011;23002;52.676;6.432;2023-03-19T05:38:46;7.00;;;3.63;;
37087;SDS011;23002;52.676;6.432;2023-03-19T05:41:13;7.35;;;4.00;;
37087;SDS011;23002;52.676;6.432;2023-03-19T05:43:40;7.60;;;4.35;;
37087;SDS011;23002;52.676;6.432;2023-03-19T05:46:07;9.10;;;4.75;;
37087;SDS011;23002;52.676;6.432;2023-03-19T05:48:34;10.10;;;5.10;;
37087;SDS011;23002;52.676;6.432;2023-03-19T05:51:01;10.93;;;4.93;;
37087;SDS011;23002;52.676;6.432;2023-03-19T05:53:29;10.82;;;5.20;;
37087;SDS011;23002;52.676;6.432;2023-03-19T05:55:56;10.20;;;5.05;;
37087;SDS011;23002;52.676;6.432;2023-03-19T05:58:23;10.38;;;4.95;;
37087;SDS011;23002;52.676;6.432;2023-03-19T06:00:52;10.13;;;4.38;;
37087;SDS011;23002;52.676;6.432;2023-03-19T06:03:21;9.98;;;3.95;;
37087;SDS011;23002;52.676;6.432;2023-03-19T06:05:48;10.80;;;4.90;;
37087;SDS011;23002;52.676;6.432;2023-03-19T06:08:16;9.85;;;4.47;;
37087;SDS011;23002;52.676;6.432;2023-03-19T06:10:44;11.15;;;4.32;;
37087;SDS011;23002;52.676;6.432;2023-03-19T06:13:11;9.80;;;5.03;;
37087;SDS011;23002;52.676;6.432;2023-03-19T06:15:38;9.07;;;4.85;;
37087;SDS011;23002;52.676;6.432;2023-03-19T06:18:06;9.25;;;4.80;;
37087;SDS011;23002;52.676;6.432;2023-03-19T06:20:33;11.02;;;4.85;;
37087;SDS011;23002;52.676;6.432;2023-03-19T06:23:01;8.35;;;4.70;;
37087;SDS011;23002;52.676;6.432;2023-03-19T06:25:28;10.07;;;4.72;;
37087;SDS011;23002;52.676;6.432;2023-03-19T06:27:55;13.15;;;5.22;;
37087;SDS011;23002;52.676;6.432;2023-03-19T06:30:22;9.38;;;4.78;;
37087;SDS011;23002;52.676;6.432;2023-03-19T06:32:49;9.25;;;5.25;;
37087;SDS011;23002;52.676;6.432;2023-03-19T06:35:17;12.90;;;5.50;;
37087;SDS011;23002;52.676;6.432;2023-03-19T06:37:44;10.27;;;5.68;;
37087;SDS011;23002;52.676;6.432;2023-03-19T06:40:11;11.38;;;5.05;;
37087;SDS011;23002;52.676;6.432;2023-03-19T06:42:38;9.55;;;4.82;;
37087;SDS011;23002;52.676;6.432;2023-03-19T06:45:06;8.73;;;4.50;;
37087;SDS011;23002;52.676;6.432;2023-03-19T06:47:33;9.25;;;5.32;;
37087;SDS011;23002;52.676;6.432;2023-03-19T06:50:00;12.13;;;5.90;;
37087;SDS011;23002;52.676;6.432;2023-03-19T06:52:28;10.23;;;5.20;;
37087;SDS011;23002;52.676;6.432;2023-03-19T06:54:55;11.70;;;5.32;;
37087;SDS011;23002;52.676;6.432;2023-03-19T06:57:22;11.25;;;5.40;;
37087;SDS011;23002;52.676;6.432;2023-03-19T06:59:49;11.57;;;5.95;;
37087;SDS011;23002;52.676;6.432;2023-03-19T07:02:16;12.65;;;5.80;;
37087;SDS011;23002;52.676;6.432;2023-03-19T07:04:43;18.05;;;7.63;;
37087;SDS011;23002;52.676;6.432;2023-03-19T07:07:10;13.68;;;6.03;;
37087;SDS011;23002;52.676;6.432;2023-03-19T07:09:37;14.68;;;6.13;;
37087;SDS011;23002;52.676;6.432;2023-03-19T07:12:05;13.48;;;6.70;;
37087;SDS011;23002;52.676;6.432;2023-03-19T07:14:32;13.55;;;6.75;;
37087;SDS011;23002;52.676;6.432;2023-03-19T07:16:59;13.45;;;6.70;;
37087;SDS011;23002;52.676;6.432;2023-03-19T07:19:26;15.27;;;8.13;;
37087;SDS011;23002;52.676;6.432;2023-03-19T07:21:53;17.67;;;7.95;;
37087;SDS011;23002;52.676;6.432;2023-03-19T07:24:20;14.77;;;7.22;;
37087;SDS011;23002;52.676;6.432;2023-03-19T07:26:47;17.58;;;8.32;;
37087;SDS011;23002;52.676;6.432;2023-03-19T07:29:14;18.60;;;8.18;;
37087;SDS011;23002;52.676;6.432;2023-03-19T07:31:42;23.90;;;10.68;;
37087;SDS011;23002;52.676;6.432;2023-03-19T07:34:09;21.08;;;8.75;;
37087;SDS011;23002;52.676;6.432;2023-03-19T07:36:36;19.05;;;8.05;;
37087;SDS011;23002;52.676;6.432;2023-03-19T07:39:04;9.88;;;5.10;;
37087;SDS011;23002;52.676;6.432;2023-03-19T07:41:31;8.30;;;4.15;;
37087;SDS011;23002;52.676;6.432;2023-03-19T07:43:58;7.70;;;4.00;;
37087;SDS011;23002;52.676;6.432;2023-03-19T07:46:25;6.65;;;3.95;;
37087;SDS011;23002;52.676;6.432;2023-03-19T07:48:53;8.95;;;4.93;;
37087;SDS011;23002;52.676;6.432;2023-03-19T07:51:20;8.38;;;4.32;;
37087;SDS011;23002;52.676;6.432;2023-03-19T07:53:47;7.15;;;3.83;;
37087;SDS011;23002;52.676;6.432;2023-03-19T07:56:14;8.15;;;4.15;;
37087;SDS011;23002;52.676;6.432;2023-03-19T07:58:41;6.50;;;3.92;;
37087;SDS011;23002;52.676;6.432;2023-03-19T08:01:08;6.78;;;3.85;;
37087;SDS011;23002;52.676;6.432;2023-03-19T08:03:36;7.40;;;3.95;;
37087;SDS011;23002;52.676;6.432;2023-03-19T08:06:03;6.88;;;3.83;;
37087;SDS011;23002;52.676;6.432;2023-03-19T08:08:30;7.75;;;3.38;;
37087;SDS011;23002;52.676;6.432;2023-03-19T08:11:00;8.40;;;3.90;;
37087;SDS011;23002;52.676;6.432;2023-03-19T08:13:27;7.05;;;3.63;;
37087;SDS011;23002;52.676;6.432;2023-03-19T08:15:54;5.97;;;3.30;;
37087;SDS011;23002;52.676;6.432;2023-03-19T08:18:21;5.53;;;3.58;;
37087;SDS011;23002;52.676;6.432;2023-03-19T08:20:49;7.22;;;3.88;;
37087;SDS011;23002;52.676;6.432;2023-03-19T08:23:16;7.70;;;3.35;;
37087;SDS011;23002;52.676;6.432;2023-03-19T08:25:43;6.80;;;4.07;;
37087;SDS011;23002;52.676;6.432;2023-03-19T08:28:10;6.55;;;3.95;;
37087;SDS011;23002;52.676;6.432;2023-03-19T08:30:37;7.18;;;3.60;;
37087;SDS011;23002;52.676;6.432;2023-03-19T08:33:05;8.52;;;4.72;;
37087;SDS011;23002;52.676;6.432;2023-03-19T08:35:32;7.30;;;4.00;;
37087;SDS011;23002;52.676;6.432;2023-03-19T08:37:59;6.53;;;3.75;;
37087;SDS011;23002;52.676;6.432;2023-03-19T08:40:26;8.02;;;4.68;;
37087;SDS011;23002;52.676;6.432;2023-03-19T08:42:53;8.52;;;5.20;;
37087;SDS011;23002;52.676;6.432;2023-03-19T08:45:21;7.65;;;4.13;;
37087;SDS011;23002;52.676;6.432;2023-03-19T08:47:48;8.82;;;4.95;;
37087;SDS011;23002;52.676;6.432;2023-03-19T08:50:16;9.02;;;4.25;;
37087;SDS011;23002;52.676;6.432;2023-03-19T08:52:43;7.63;;;3.92;;
37087;SDS011;23002;52.676;6.432;2023-03-19T08:55:10;8.82;;;4.03;;
37087;SDS011;23002;52.676;6.432;2023-03-19T08:57:37;7.18;;;4.20;;
37087;SDS011;23002;52.676;6.432;2023-03-19T09:00:04;7.03;;;3.60;;
37087;SDS011;23002;52.676;6.432;2023-03-19T09:02:32;6.85;;;3.88;;
37087;SDS011;23002;52.676;6.432;2023-03-19T09:05:00;7.50;;;3.75;;
37087;SDS011;23002;52.676;6.432;2023-03-19T09:07:27;7.30;;;3.60;;
37087;SDS011;23002;52.676;6.432;2023-03-19T09:09:54;8.60;;;4.63;;
37087;SDS011;23002;52.676;6.432;2023-03-19T09:12:21;8.35;;;4.03;;
37087;SDS011;23002;52.676;6.432;2023-03-19T09:14:48;7.38;;;3.28;;
37087;SDS011;23002;52.676;6.432;2023-03-19T09:17:15;7.22;;;3.78;;
37087;SDS011;23002;52.676;6.432;2023-03-19T09:19:43;8.93;;;3.97;;
37087;SDS011;23002;52.676;6.432;2023-03-19T09:22:10;5.78;;;3.63;;
37087;SDS011;23002;52.676;6.432;2023-03-19T09:24:37;7.43;;;3.40;;
37087;SDS011;23002;52.676;6.432;2023-03-19T09:27:05;7.43;;;3.80;;
37087;SDS011;23002;52.676;6.432;2023-03-19T09:29:33;6.22;;;3.67;;
37087;SDS011;23002;52.676;6.432;2023-03-19T09:32:00;8.63;;;3.80;;
37087;SDS011;23002;52.676;6.432;2023-03-19T09:34:27;6.25;;;4.00;;
37087;SDS011;23002;52.676;6.432;2023-03-19T09:36:54;7.15;;;3.83;;
37087;SDS011;23002;52.676;6.432;2023-03-19T09:39:21;7.30;;;4.07;;
37087;SDS011;23002;52.676;6.432;2023-03-19T09:44:35;7.45;;;3.95;;
37087;SDS011;23002;52.676;6.432;2023-03-19T09:50:10;8.30;;;4.43;;
37087;SDS011;23002;52.676;6.432;2023-03-19T09:52:48;8.65;;;5.30;;
37087;SDS011;23002;52.676;6.432;2023-03-19T09:57:54;11.20;;;5.65;;
37087;SDS011;23002;52.676;6.432;2023-03-19T10:00:23;10.52;;;5.45;;
37087;SDS011;23002;52.676;6.432;2023-03-19T10:02:59;8.35;;;5.00;;
37087;SDS011;23002;52.676;6.432;2023-03-19T10:15:45;7.20;;;5.05;;
37087;SDS011;23002;52.676;6.432;2023-03-19T10:18:16;9.85;;;4.63;;
37087;SDS011;23002;52.676;6.432;2023-03-19T10:26:10;7.38;;;4.43;;
37087;SDS011;23002;52.676;6.432;2023-03-19T10:28:38;8.27;;;4.35;;
37087;SDS011;23002;52.676;6.432;2023-03-19T10:31:14;6.35;;;3.90;;
37087;SDS011;23002;52.676;6.432;2023-03-19T10:33:47;8.38;;;4.53;;
37087;SDS011;23002;52.676;6.432;2023-03-19T10:36:16;8.68;;;5.05;;
37087;SDS011;23002;52.676;6.432;2023-03-19T10:38:45;8.57;;;4.15;;
37087;SDS011;23002;52.676;6.432;2023-03-19T10:43:42;8.15;;;3.88;;
37087;SDS011;23002;52.676;6.432;2023-03-19T10:46:13;7.95;;;3.75;;
37087;SDS011;23002;52.676;6.432;2023-03-19T10:48:44;9.05;;;4.13;;
37087;SDS011;23002;52.676;6.432;2023-03-19T10:51:13;7.05;;;4.40;;
37087;SDS011;23002;52.676;6.432;2023-03-19T10:53:41;9.68;;;4.80;;
37087;SDS011;23002;52.676;6.432;2023-03-19T10:59:00;8.50;;;3.95;;
37087;SDS011;23002;52.676;6.432;2023-03-19T11:01:35;7.85;;;4.47;;
37087;SDS011;23002;52.676;6.432;2023-03-19T11:04:15;6.32;;;3.83;;
37087;SDS011;23002;52.676;6.432;2023-03-19T11:06:47;9.55;;;4.03;;
37087;SDS011;23002;52.676;6.432;2023-03-19T11:09:17;8.07;;;4.18;;
37087;SDS011;23002;52.676;6.432;2023-03-19T11:11:48;7.47;;;4.13;;
37087;SDS011;23002;52.676;6.432;2023-03-19T11:14:19;6.75;;;3.45;;
37087;SDS011;23002;52.676;6.432;2023-03-19T11:16:47;8.05;;;3.95;;
37087;SDS011;23002;52.676;6.432;2023-03-19T11:19:18;7.13;;;3.60;;
37087;SDS011;23002;52.676;6.432;2023-03-19T11:24:25;8.48;;;4.75;;
37087;SDS011;23002;52.676;6.432;2023-03-19T11:26:53;8.25;;;4.05;;
37087;SDS011;23002;52.676;6.432;2023-03-19T11:29:21;9.25;;;4.53;;
37087;SDS011;23002;52.676;6.432;2023-03-19T11:32:01;8.20;;;4.68;;
37087;SDS011;23002;52.676;6.432;2023-03-19T11:34:58;7.18;;;4.32;;
37087;SDS011;23002;52.676;6.432;2023-03-19T11:37:42;7.43;;;4.30;;
37087;SDS011;23002;52.676;6.432;2023-03-19T11:40:15;7.10;;;4.13;;
37087;SDS011;23002;52.676;6.432;2023-03-19T11:42:56;8.52;;;4.47;;
37087;SDS011;23002;52.676;6.432;2023-03-19T11:48:15;7.80;;;4.32;;
37087;SDS011;23002;52.676;6.432;2023-03-19T11:55:42;9.68;;;4.32;;
37087;SDS011;23002;52.676;6.432;2023-03-19T11:58:18;8.95;;;4.72;;
37087;SDS011;23002;52.676;6.432;2023-03-19T12:00:49;7.43;;;4.13;;
37087;SDS011;23002;52.676;6.432;2023-03-19T12:03:36;8.40;;;4.93;;
37087;SDS011;23002;52.676;6.432;2023-03-19T12:06:13;8.35;;;4.25;;
37087;SDS011;23002;52.676;6.432;2023-03-19T12:08:55;8.82;;;4.47;;
37087;SDS011;23002;52.676;6.432;2023-03-19T12:16:47;10.02;;;4.78;;
37087;SDS011;23002;52.676;6.432;2023-03-19T12:29:52;10.35;;;5.03;;
37087;SDS011;23002;52.676;6.432;2023-03-19T12:39:55;11.95;;;5.68;;
37087;SDS011;23002;52.676;6.432;2023-03-19T12:42:25;13.18;;;5.50;;
37087;SDS011;23002;52.676;6.432;2023-03-19T12:44:54;9.30;;;5.20;;
37087;SDS011;23002;52.676;6.432;2023-03-19T12:47:25;9.50;;;5.47;;
37087;SDS011;23002;52.676;6.432;2023-03-19T12:49:57;11.05;;;5.57;;
37087;SDS011;23002;52.676;6.432;2023-03-19T12:52:41;11.18;;;5.85;;
37087;SDS011;23002;52.676;6.432;2023-03-19T12:57:47;10.88;;;5.68;;
37087;SDS011;23002;52.676;6.432;2023-03-19T13:10:31;10.48;;;5.75;;
37087;SDS011;23002;52.676;6.432;2023-03-19T13:12:59;11.05;;;6.70;;
37087;SDS011;23002;52.676;6.432;2023-03-19T13:15:38;11.52;;;5.60;;
37087;SDS011;23002;52.676;6.432;2023-03-19T13:18:13;12.05;;;6.55;;
37087;SDS011;23002;52.676;6.432;2023-03-19T13:23:29;13.63;;;6.30;;
37087;SDS011;23002;52.676;6.432;2023-03-19T13:25:57;12.13;;;6.45;;
37087;SDS011;23002;52.676;6.432;2023-03-19T13:28:33;11.45;;;6.20;;
37087;SDS011;23002;52.676;6.432;2023-03-19T13:31:04;13.77;;;6.18;;
37087;SDS011;23002;52.676;6.432;2023-03-19T13:33:32;12.90;;;6.22;;
37087;SDS011;23002;52.676;6.432;2023-03-19T13:36:00;10.90;;;6.03;;
37087;SDS011;23002;52.676;6.432;2023-03-19T13:41:01;14.85;;;7.00;;
37087;SDS011;23002;52.676;6.432;2023-03-19T13:51:03;17.85;;;6.80;;
37087;SDS011;23002;52.676;6.432;2023-03-19T13:55:59;12.13;;;6.40;;
37087;SDS011;23002;52.676;6.432;2023-03-19T13:58:27;11.75;;;6.32;;
37087;SDS011;23002;52.676;6.432;2023-03-19T14:01:46;14.80;;;6.88;;
37087;SDS011;23002;52.676;6.432;2023-03-19T14:06:47;12.00;;;6.38;;
37087;SDS011;23002;52.676;6.432;2023-03-19T14:14:44;13.98;;;7.00;;
37087;SDS011;23002;52.676;6.432;2023-03-19T14:17:20;14.70;;;6.65;;
37087;SDS011;23002;52.676;6.432;2023-03-19T14:19:49;14.13;;;6.57;;
37087;SDS011;23002;52.676;6.432;2023-03-19T14:22:30;14.73;;;6.65;;
37087;SDS011;23002;52.676;6.432;2023-03-19T14:25:17;16.58;;;7.93;;
37087;SDS011;23002;52.676;6.432;2023-03-19T14:27:49;15.77;;;7.15;;
37087;SDS011;23002;52.676;6.432;2023-03-19T14:32:56;18.95;;;8.50;;
37087;SDS011;23002;52.676;6.432;2023-03-19T14:35:26;18.77;;;7.70;;
37087;SDS011;23002;52.676;6.432;2023-03-19T14:37:54;16.92;;;8.20;;
37087;SDS011;23002;52.676;6.432;2023-03-19T14:40:25;15.18;;;7.28;;
37087;SDS011;23002;52.676;6.432;2023-03-19T14:45:42;13.88;;;6.75;;
37087;SDS011;23002;52.676;6.432;2023-03-19T14:56:14;18.63;;;8.07;;
37087;SDS011;23002;52.676;6.432;2023-03-19T14:58:48;15.50;;;6.78;;
37087;SDS011;23002;52.676;6.432;2023-03-19T15:01:15;19.95;;;7.85;;
37087;SDS011;23002;52.676;6.432;2023-03-19T15:03:43;16.67;;;7.25;;
37087;SDS011;23002;52.676;6.432;2023-03-19T15:06:11;17.73;;;6.63;;
37087;SDS011;23002;52.676;6.432;2023-03-19T15:08:39;19.77;;;7.22;;
37087;SDS011;23002;52.676;6.432;2023-03-19T15:16:05;16.05;;;6.68;;
37087;SDS011;23002;52.676;6.432;2023-03-19T15:18:35;16.20;;;6.00;;
37087;SDS011;23002;52.676;6.432;2023-03-19T15:21:03;17.30;;;6.07;;
37087;SDS011;23002;52.676;6.432;2023-03-19T15:23:31;17.48;;;6.53;;
37087;SDS011;23002;52.676;6.432;2023-03-19T15:25:59;17.17;;;6.47;;
37087;SDS011;23002;52.676;6.432;2023-03-19T15:28:27;14.93;;;5.80;;
37087;SDS011;23002;52.676;6.432;2023-03-19T15:33:34;18.98;;;5.85;;
37087;SDS011;23002;52.676;6.432;2023-03-19T15:36:12;19.25;;;7.03;;
37087;SDS011;23002;52.676;6.432;2023-03-19T15:38:47;16.95;;;7.28;;
37087;SDS011;23002;52.676;6.432;2023-03-19T15:41:17;15.00;;;6.60;;
37087;SDS011;23002;52.676;6.432;2023-03-19T15:43:44;18.80;;;7.43;;
37087;SDS011;23002;52.676;6.432;2023-03-19T15:46:13;18.08;;;6.50;;
37087;SDS011;23002;52.676;6.432;2023-03-19T15:48:42;23.77;;;7.40;;
37087;SDS011;23002;52.676;6.432;2023-03-19T15:51:10;17.17;;;6.60;;
37087;SDS011;23002;52.676;6.432;2023-03-19T15:53:38;20.13;;;8.85;;
37087;SDS011;23002;52.676;6.432;2023-03-19T15:56:06;17.55;;;6.68;;
37087;SDS011;23002;52.676;6.432;2023-03-19T15:58:37;21.98;;;8.13;;
37087;SDS011;23002;52.676;6.432;2023-03-19T16:01:06;28.17;;;9.57;;
37087;SDS011;23002;52.676;6.432;2023-03-19T16:03:36;21.20;;;8.40;;
37087;SDS011;23002;52.676;6.432;2023-03-19T16:06:04;26.92;;;9.18;;
37087;SDS011;23002;52.676;6.432;2023-03-19T16:08:32;21.75;;;7.70;;
37087;SDS011;23002;52.676;6.432;2023-03-19T16:13:51;23.98;;;8.35;;
37087;SDS011;23002;52.676;6.432;2023-03-19T16:16:20;23.83;;;8.57;;
37087;SDS011;23002;52.676;6.432;2023-03-19T16:18:52;20.80;;;8.05;;
37087;SDS011;23002;52.676;6.432;2023-03-19T16:21:20;23.25;;;8.30;;
37087;SDS011;23002;52.676;6.432;2023-03-19T16:23:49;23.77;;;8.10;;
37087;SDS011;23002;52.676;6.432;2023-03-19T16:26:21;23.48;;;8.30;;
37087;SDS011;23002;52.676;6.432;2023-03-19T16:29:33;22.30;;;8.25;;
37087;SDS011;23002;52.676;6.432;2023-03-19T16:31:40;18.90;;;7.47;;
37087;SDS011;23002;52.676;6.432;2023-03-19T16:34:43;26.30;;;8.77;;
37087;SDS011;23002;52.676;6.432;2023-03-19T16:37:01;22.02;;;7.25;;
37087;SDS011;23002;52.676;6.432;2023-03-19T16:44:37;28.75;;;8.38;;
37087;SDS011;23002;52.676;6.432;2023-03-19T16:47:12;23.35;;;8.35;;
37087;SDS011;23002;52.676;6.432;2023-03-19T16:49:39;21.27;;;8.32;;
37087;SDS011;23002;52.676;6.432;2023-03-19T16:52:09;22.05;;;8.43;;
37087;SDS011;23002;52.676;6.432;2023-03-19T16:54:39;22.25;;;7.88;;
37087;SDS011;23002;52.676;6.432;2023-03-19T16:57:08;25.52;;;8.50;;
37087;SDS011;23002;52.676;6.432;2023-03-19T16:59:36;25.98;;;8.70;;
37087;SDS011;23002;52.676;6.432;2023-03-19T17:02:08;16.75;;;7.03;;
37087;SDS011;23002;52.676;6.432;2023-03-19T17:04:36;20.00;;;7.82;;